Time;durP1;ratioP1;P1;durP2;ratioP2;P2;SDS_P1;SDS_P2;PMS_P1;PMS_P2;Temp;Humidity;BMP_temperature;BMP_pressure;BME280_temperature;BME280_humidity;BME280_pressure;Samples;Min_cycle;Max_cycle;Signal;HPM_P1;HPM_P2
2023/05/26 00:00:04;;;;;;;28.13;8.10;;;;;;;8.36;100.00;102945.16;4998998;28;20034;-44
2023/05/26 00:02:30;;;;;;;29.00;6.47;;;;;;;8.33;100.00;102939.88;4992350;28;20160;-42
2023/05/26 00:04:58;;;;;;;31.65;7.97;;;;;;;7.97;100.00;102884.34;4993055;28;20114;-43
2023/05/26 00:07:24;;;;;;;26.20;7.32;;;;;;;8.01;100.00;102891.41;4992758;28;20033;-46
2023/05/26 00:09:49;;;;;;;23.27;6.85;;;;;;;8.27;100.00;102941.50;4993039;28;20053;-47
2023/05/26 00:12:14;;;;;;;29.38;7.32;;;;;;;8.18;100.00;102950.16;4992645;28;20095;-44
2023/05/26 00:14:40;;;;;;;21.15;6.53;;;;;;;7.71;100.00;102868.34;4993056;28;20390;-46
2023/05/26 00:17:06;;;;;;;27.13;6.85;;;;;;;8.17;100.00;102958.88;4991114;28;20473;-49
2023/05/26 00:19:35;;;;;;;31.05;7.93;;;;;;;8.15;100.00;102955.38;4975124;28;20046;-44
2023/05/26 00:22:01;;;;;;;32.63;7.50;;;;;;;8.13;100.00;102956.22;4974539;28;20089;-45
2023/05/26 00:24:26;;;;;;;22.30;7.20;;;;;;;8.06;100.00;102949.13;4992919;28;20433;-45
2023/05/26 00:26:51;;;;;;;24.63;7.72;;;;;;;7.60;100.00;102880.44;4974848;28;20402;-47
2023/05/26 00:29:17;;;;;;;24.80;6.60;;;;;;;8.06;100.00;102967.50;4983958;28;20053;-46
2023/05/26 00:31:42;;;;;;;26.38;7.00;;;;;;;7.65;100.00;102894.47;4991098;28;20089;-44
2023/05/26 00:34:08;;;;;;;21.70;6.00;;;;;;;7.90;100.00;102943.75;5007618;28;20080;-46
2023/05/26 00:36:33;;;;;;;20.25;5.60;;;;;;;7.98;100.00;102972.66;4992667;28;20097;-44
2023/05/26 00:38:58;;;;;;;35.72;8.15;;;;;;;7.57;100.00;102890.88;4991387;28;20049;-44
2023/05/26 00:41:25;;;;;;;30.00;7.38;;;;;;;7.52;100.00;102889.97;4991646;28;20034;-46
2023/05/26 00:43:51;;;;;;;19.10;6.63;;;;;;;7.93;100.00;102962.13;4973858;28;20041;-43
2023/05/26 00:46:16;;;;;;;26.40;6.40;;;;;;;7.94;100.00;102965.59;4992303;28;20065;-44
2023/05/26 00:48:42;;;;;;;36.33;7.60;;;;;;;7.94;100.00;102957.75;4992473;28;20038;-44
2023/05/26 00:51:08;;;;;;;33.97;7.05;;;;;;;7.74;100.00;102927.78;5009459;28;20092;-48
2023/05/26 00:53:36;;;;;;;31.85;7.53;;;;;;;7.91;100.00;102962.94;4991776;28;20112;-43
2023/05/26 00:56:01;;;;;;;29.23;7.10;;;;;;;7.59;100.00;102896.16;4985172;28;20022;-45
2023/05/26 00:58:27;;;;;;;22.88;6.40;;;;;;;7.59;100.00;102902.25;4974533;28;20394;-44
2023/05/26 01:00:52;;;;;;;38.20;8.05;;;;;;;7.89;100.00;102955.06;4991886;28;20030;-43
2023/05/26 01:03:18;;;;;;;26.75;7.18;;;;;;;7.86;100.00;102952.41;4989389;28;20129;-44
2023/05/26 01:05:43;;;;;;;22.63;6.15;;;;;;;7.87;100.00;102953.31;5002426;28;20038;-43
2023/05/26 01:08:08;;;;;;;26.42;7.50;;;;;;;7.83;100.00;102960.25;4992786;28;20039;-45
2023/05/26 01:10:34;;;;;;;29.50;6.68;;;;;;;7.52;100.00;102907.41;4991442;28;20034;-46
2023/05/26 01:13:06;;;;;;;30.02;6.70;;;;;;;7.81;100.00;102959.34;4989876;28;20047;-47
2023/05/26 01:15:52;;;;;;;31.38;6.97;;;;;;;7.73;100.00;102944.41;4974375;28;20034;-44
2023/05/26 01:18:36;;;;;;;28.27;6.43;;;;;;;7.84;100.00;102964.63;4991018;28;20088;-50
2023/05/26 01:21:12;;;;;;;34.60;7.43;;;;;;;7.48;100.00;102902.97;4999249;28;20057;-46
2023/05/26 01:24:12;;;;;;;24.55;6.40;;;;;;;7.83;100.00;102968.09;4990426;28;20120;-46
2023/05/26 01:27:03;;;;;;;29.77;7.25;;;;;;;7.85;100.00;102968.16;4989985;28;20063;-43
2023/05/26 01:29:29;;;;;;;;;;;;;;;7.87;100.00;102963.78;4973483;28;20048;-47
2023/05/26 01:32:05;;;;;;;26.63;5.97;;;;;;;7.82;100.00;102965.50;5003759;28;19984;-44
2023/05/26 01:34:30;;;;;;;26.90;6.82;;;;;;;7.88;100.00;102965.56;4994382;28;20038;-48
2023/05/26 01:36:55;;;;;;;22.08;5.70;;;;;;;7.84;100.00;102969.00;4997192;28;20493;-45
2023/05/26 01:39:21;;;;;;;30.40;6.32;;;;;;;7.66;100.00;102940.81;4996934;28;20046;-44
2023/05/26 01:42:07;;;;;;;28.98;7.53;;;;;;;7.84;100.00;102969.88;5005680;28;20042;-44
2023/05/26 01:44:37;;;;;;;29.67;6.15;;;;;;;7.80;100.00;102972.44;4981623;28;20038;-43
2023/05/26 01:47:03;;;;;;;26.00;6.47;;;;;;;7.81;100.00;102977.72;4994538;28;20069;-44
2023/05/26 01:49:29;;;;;;;28.35;6.72;;;;;;;7.79;100.00;102974.16;4977237;28;20035;-44
2023/05/26 01:52:00;;;;;;;26.15;6.00;;;;;;;7.57;100.00;102947.66;4993952;28;20027;-46
2023/05/26 01:54:27;;;;;;;23.80;6.13;;;;;;;7.68;100.00;102986.25;4976633;28;20069;-45
2023/05/26 01:56:53;;;;;;;34.88;7.25;;;;;;;7.67;100.00;102987.13;4993053;28;20034;-43
2023/05/26 01:59:20;;;;;;;27.08;6.70;;;;;;;7.63;100.00;102985.31;5004483;28;20038;-44
2023/05/26 02:01:46;;;;;;;27.88;6.30;;;;;;;7.24;100.00;102916.63;4977169;28;20034;-44
2023/05/26 02:04:12;;;;;;;24.23;5.85;;;;;;;7.54;100.00;102987.81;4995542;28;20402;-46
2023/05/26 02:06:38;;;;;;;32.08;7.38;;;;;;;7.51;100.00;102990.38;4994083;28;20117;-44
2023/05/26 02:09:04;;;;;;;31.75;7.90;;;;;;;7.54;100.00;102992.16;4973938;28;20102;-44
2023/05/26 02:11:29;;;;;;;30.50;7.00;;;;;;;7.41;100.00;102961.41;5009574;28;20038;-45
2023/05/26 02:13:55;;;;;;;28.70;7.18;;;;;;;7.56;100.00;102995.72;4993335;28;20089;-46
2023/05/26 02:16:21;;;;;;;25.10;5.95;;;;;;;7.54;100.00;102992.16;4994273;28;20473;-45
2023/05/26 02:18:47;;;;;;;32.20;6.88;;;;;;;7.22;100.00;102932.34;4993944;28;20042;-46
2023/05/26 02:21:13;;;;;;;25.27;6.35;;;;;;;7.58;100.00;102986.13;4994306;28;20046;-43
2023/05/26 02:23:38;;;;;;;33.33;6.93;;;;;;;7.59;100.00;102993.13;4977042;28;20034;-46
2023/05/26 02:26:04;;;;;;;34.53;8.45;;;;;;;7.61;100.00;102997.53;5001869;28;20038;-48
2023/05/26 02:28:29;;;;;;;29.92;6.80;;;;;;;7.54;100.00;102979.94;4987041;28;20354;-45
2023/05/26 02:30:55;;;;;;;28.05;7.07;;;;;;;7.46;100.00;102967.59;4993464;28;20038;-43
2023/05/26 02:33:20;;;;;;;28.30;6.28;;;;;;;7.53;100.00;102975.56;4994300;28;20401;-44
2023/05/26 02:35:45;;;;;;;33.35;7.13;;;;;;;7.64;100.00;102994.06;4976448;28;20514;-45
2023/05/26 02:38:11;;;;;;;30.20;6.03;;;;;;;7.60;100.00;102984.38;4994799;28;20283;-44
2023/05/26 02:40:36;;;;;;;21.02;6.40;;;;;;;7.11;100.00;102912.09;4994689;28;20041;-45
2023/05/26 02:43:01;;;;;;;30.98;6.78;;;;;;;7.53;100.00;102990.44;4993708;28;20488;-45
2023/05/26 02:45:27;;;;;;;26.70;6.43;;;;;;;7.12;100.00;102926.94;4974612;28;20034;-44
2023/05/26 02:47:52;;;;;;;29.08;6.05;;;;;;;7.34;100.00;102974.44;4994591;28;20397;-50
2023/05/26 02:50:18;;;;;;;32.17;7.50;;;;;;;7.53;100.00;102996.53;4970946;28;20034;-45
2023/05/26 02:52:44;;;;;;;29.13;6.15;;;;;;;7.54;100.00;102995.69;4990343;28;20488;-48
2023/05/26 02:55:11;;;;;;;27.70;7.75;;;;;;;7.56;100.00;102999.19;4994286;28;20397;-47
2023/05/26 02:57:36;;;;;;;32.33;7.25;;;;;;;7.27;100.00;102937.63;4992392;28;20038;-49
2023/05/26 03:00:02;;;;;;;23.15;6.20;;;;;;;7.58;100.00;102996.59;4995579;28;20049;-44
2023/05/26 03:02:28;;;;;;;28.73;7.88;;;;;;;7.54;100.00;103000.03;4992765;28;20038;-44
2023/05/26 03:04:53;;;;;;;32.58;7.15;;;;;;;7.16;100.00;102927.00;4994567;28;20039;-43
2023/05/26 03:07:18;;;;;;;20.45;6.40;;;;;;;7.49;100.00;102999.09;4992453;28;20054;-47
2023/05/26 03:09:44;;;;;;;24.15;6.57;;;;;;;7.48;100.00;103000.81;4993831;28;20113;-47
2023/05/26 03:12:12;;;;;;;30.35;6.97;;;;;;;7.46;100.00;103001.66;4993088;28;20034;-47
2023/05/26 03:14:37;;;;;;;27.25;7.03;;;;;;;7.45;100.00;102999.88;4993488;28;20110;-44
2023/05/26 03:17:03;;;;;;;35.03;7.47;;;;;;;7.05;100.00;102935.56;4993042;28;20035;-46
2023/05/26 03:19:28;;;;;;;22.85;6.50;;;;;;;7.08;100.00;102932.97;4992844;28;20031;-49
2023/05/26 03:21:55;;;;;;;25.02;6.47;;;;;;;7.43;100.00;102988.53;4992654;28;20034;-47
2023/05/26 03:24:20;;;;;;;24.13;6.80;;;;;;;7.15;100.00;102943.56;4993183;28;20039;-45
2023/05/26 03:26:46;;;;;;;27.80;7.20;;;;;;;7.47;100.00;102996.47;4992570;28;20092;-44
2023/05/26 03:29:11;;;;;;;25.80;6.95;;;;;;;7.44;100.00;102999.03;4992580;28;20036;-45
2023/05/26 03:31:36;;;;;;;28.80;6.80;;;;;;;7.26;100.00;102975.19;4992369;28;20046;-43
2023/05/26 03:34:02;;;;;;;28.70;7.53;;;;;;;7.42;100.00;103000.72;4959595;28;20126;-44
2023/05/26 03:36:27;;;;;;;30.85;6.80;;;;;;;7.44;100.00;103003.38;4992059;28;20050;-50
2023/05/26 03:38:52;;;;;;;22.30;6.88;;;;;;;7.43;100.00;102997.25;4993459;28;20049;-46
2023/05/26 03:41:18;;;;;;;26.90;6.88;;;;;;;7.10;100.00;102947.84;4992735;28;20350;-45
2023/05/26 03:43:43;;;;;;;25.80;6.95;;;;;;;7.44;100.00;103011.25;4975754;28;20491;-46
2023/05/26 03:46:08;;;;;;;24.10;6.78;;;;;;;7.46;100.00;103006.91;4992289;28;20038;-44
2023/05/26 03:48:34;;;;;;;27.58;6.72;;;;;;;7.47;100.00;103006.94;4974967;28;20117;-44
2023/05/26 03:50:59;;;;;;;28.10;7.13;;;;;;;7.46;100.00;103007.78;5004171;28;20393;-47
2023/05/26 03:53:24;;;;;;;27.15;6.53;;;;;;;7.34;100.00;102987.53;5011669;28;20029;-44
2023/05/26 03:55:50;;;;;;;29.40;6.40;;;;;;;7.27;100.00;102958.59;5012648;28;20045;-46
2023/05/26 03:58:15;;;;;;;28.70;7.53;;;;;;;7.51;100.00;102995.63;4999298;28;20388;-46
2023/05/26 04:00:41;;;;;;;26.63;7.22;;;;;;;7.27;100.00;102956.84;4986145;28;20549;-48
2023/05/26 04:03:06;;;;;;;30.90;8.00;;;;;;;7.34;100.00;102960.44;4976527;28;20106;-47
2023/05/26 04:05:31;;;;;;;28.13;6.45;;;;;;;7.71;100.00;103020.38;4991295;28;20062;-42
2023/05/26 04:07:56;;;;;;;21.95;5.80;;;;;;;7.42;100.00;102965.78;4999558;28;20073;-43
2023/05/26 04:10:22;;;;;;;22.65;6.95;;;;;;;7.45;100.00;102952.72;4978496;28;20129;-46
2023/05/26 04:12:47;;;;;;;29.50;7.25;;;;;;;7.85;100.00;103017.97;4993126;28;20030;-48
2023/05/26 04:15:13;;;;;;;26.42;6.57;;;;;;;7.90;100.00;103014.53;4974995;28;20034;-44
2023/05/26 04:17:38;;;;;;;29.10;7.45;;;;;;;7.52;100.00;102949.34;4991820;28;20038;-44
2023/05/26 04:20:10;;;;;;;29.52;7.32;;;;;;;7.92;100.00;103011.91;4991014;28;20046;-47
2023/05/26 04:22:35;;;;;;;28.65;6.90;;;;;;;7.63;100.00;102958.22;4991543;28;20041;-45
2023/05/26 04:25:01;;;;;;;25.65;6.72;;;;;;;8.03;100.00;103009.41;5005039;28;20033;-43
2023/05/26 04:27:26;;;;;;;24.70;6.55;;;;;;;8.09;100.00;103017.38;4992078;28;20129;-44
2023/05/26 04:29:52;;;;;;;27.27;6.35;;;;;;;8.13;100.00;103013.94;4991765;28;20054;-43
2023/05/26 04:32:20;;;;;;;21.90;6.28;;;;;;;8.16;100.00;103020.09;4987275;28;20062;-46
2023/05/26 04:34:45;;;;;;;22.30;6.20;;;;;;;8.21;100.00;103026.28;4956382;28;20042;-45
2023/05/26 04:37:11;;;;;;;26.42;6.50;;;;;;;7.93;100.00;102966.50;4989296;28;20042;-43
2023/05/26 04:39:36;;;;;;;35.78;7.38;;;;;;;8.29;100.00;103019.41;4991993;28;20397;-45
2023/05/26 04:42:03;;;;;;;28.50;7.47;;;;;;;8.39;100.00;103031.78;5003758;28;20401;-51
2023/05/26 04:44:29;;;;;;;21.52;6.35;;;;;;;8.19;100.00;102993.03;4993038;28;20493;-48
2023/05/26 04:46:54;;;;;;;27.52;7.05;;;;;;;8.44;100.00;103037.97;4991256;28;20038;-46
2023/05/26 04:49:22;;;;;;;29.80;6.95;;;;;;;8.24;100.00;102978.22;4992126;28;20042;-47
2023/05/26 04:51:50;;;;;;;28.00;6.78;;;;;;;8.61;100.00;103043.38;4974563;28;20026;-43
2023/05/26 04:54:16;;;;;;;24.58;6.65;;;;;;;8.70;100.00;103040.00;4974856;28;20213;-43
2023/05/26 04:56:41;;;;;;;21.88;5.80;;;;;;;8.48;100.00;102989.00;4998221;28;20109;-47
2023/05/26 04:59:07;;;;;;;33.65;6.68;;;;;;;8.57;100.00;102993.47;4975031;28;20050;-44
2023/05/26 05:01:32;;;;;;;22.25;6.15;;;;;;;8.65;100.00;102987.44;4989469;28;20635;-44
2023/05/26 05:03:58;;;;;;;25.77;5.93;;;;;;;9.17;100.00;103064.94;4991873;28;20129;-45
2023/05/26 05:06:23;;;;;;;27.48;7.65;;;;;;;9.24;100.00;103045.75;4992127;28;20068;-44
2023/05/26 05:08:49;;;;;;;27.40;6.35;;;;;;;9.19;100.00;103038.69;4982659;28;20042;-50
2023/05/26 05:11:14;;;;;;;24.17;6.28;;;;;;;9.20;100.00;103054.47;4994714;28;20400;-45
2023/05/26 05:13:40;;;;;;;20.48;6.07;;;;;;;9.32;100.00;103075.59;4996255;28;20125;-50
2023/05/26 05:16:05;;;;;;;28.83;7.57;;;;;;;9.28;100.00;103068.53;4979543;28;20042;-44
2023/05/26 05:18:31;;;;;;;28.45;6.30;;;;;;;9.04;100.00;103016.69;5003654;28;20045;-47
2023/05/26 05:20:56;;;;;;;26.77;6.28;;;;;;;9.36;100.00;103068.63;4995054;28;20241;-45
2023/05/26 05:23:21;;;;;;;25.25;6.30;;;;;;;9.11;100.00;103028.09;4995306;28;20042;-45
2023/05/26 05:25:47;;;;;;;27.35;6.68;;;;;;;9.37;100.00;103068.63;4994226;28;20063;-47
2023/05/26 05:28:12;;;;;;;27.52;6.13;;;;;;;9.57;100.00;103082.78;4995167;28;20088;-50
2023/05/26 05:30:37;;;;;;;29.63;7.25;;;;;;;9.32;100.00;103028.28;4990777;28;20034;-46
2023/05/26 05:33:03;;;;;;;24.45;6.32;;;;;;;9.77;100.00;103080.31;4993929;28;20374;-43
2023/05/26 05:35:28;;;;;;;19.40;6.35;;;;;;;9.83;100.00;103088.25;4992182;28;20057;-46
2023/05/26 05:37:58;;;;;;;25.83;5.90;;;;;;;9.97;100.00;103094.47;4995390;28;20405;-46
2023/05/26 05:40:23;;;;;;;26.02;6.57;;;;;;;10.03;100.00;103081.34;4995437;28;20093;-48
2023/05/26 05:42:49;;;;;;;23.88;6.13;;;;;;;10.15;100.00;103091.97;4989036;28;20477;-43
2023/05/26 05:45:14;;;;;;;24.63;6.28;;;;;;;10.11;100.00;103074.38;4994786;28;20042;-43
2023/05/26 05:47:40;;;;;;;24.58;6.07;;;;;;;10.35;100.00;103099.06;4995571;28;20037;-48
2023/05/26 05:50:05;;;;;;;25.60;5.72;;;;;;;10.45;100.00;103098.25;4995454;28;20034;-47
2023/05/26 05:52:31;;;;;;;20.33;5.22;;;;;;;10.24;100.00;103062.19;4994671;28;20050;-45
2023/05/26 05:54:57;;;;;;;29.25;6.85;;;;;;;10.62;100.00;103110.56;4995584;28;20035;-44
2023/05/26 05:57:22;;;;;;;30.63;6.55;;;;;;;10.34;100.00;103044.66;4993668;28;20129;-44
2023/05/26 05:59:47;;;;;;;23.15;6.20;;;;;;;10.79;100.00;103107.13;4992910;28;20038;-49
2023/05/26 06:02:13;;;;;;;31.98;6.93;;;;;;;10.51;100.00;103054.38;4992422;28;20084;-47
2023/05/26 06:04:38;;;;;;;25.38;6.32;;;;;;;10.76;100.00;103081.66;4992426;28;20061;-45
2023/05/26 06:07:04;;;;;;;18.67;5.07;;;;;;;11.04;100.00;103112.47;4979348;28;20114;-45
2023/05/26 06:09:29;;;;;;;24.98;6.13;;;;;;;10.71;100.00;103054.44;4985034;28;20042;-44
2023/05/26 06:11:54;;;;;;;23.10;5.60;;;;;;;11.01;100.00;103085.22;4992574;28;20096;-47
2023/05/26 06:14:20;;;;;;;25.27;5.95;;;;;;;10.83;100.00;103056.22;4994223;28;20046;-50
2023/05/26 06:16:45;;;;;;;19.52;5.18;;;;;;;11.22;100.00;103099.31;5000050;28;20037;-47
2023/05/26 06:19:10;;;;;;;20.80;5.07;;;;;;;11.43;100.00;103121.28;4992649;28;20042;-44
2023/05/26 06:21:36;;;;;;;23.15;6.47;;;;;;;11.57;100.00;103122.16;4994360;28;20121;-44
2023/05/26 06:24:01;;;;;;;21.27;5.55;;;;;;;11.70;100.00;103122.16;4994628;28;20133;-44
2023/05/26 06:26:26;;;;;;;21.30;5.45;;;;;;;11.60;100.00;103095.78;4992827;28;20103;-46
2023/05/26 06:28:52;;;;;;;25.02;5.95;;;;;;;11.76;100.00;103116.88;4993438;28;20084;-44
2023/05/26 06:31:17;;;;;;;20.55;5.85;;;;;;;11.91;100.00;103133.63;4994399;28;20121;-46
2023/05/26 06:33:42;;;;;;;22.15;5.78;;;;;;;11.88;100.00;103139.75;5000867;28;20473;-45
2023/05/26 06:36:10;;;;;;;18.50;5.68;;;;;;;11.96;100.00;103124.81;4991078;28;20104;-47
2023/05/26 06:38:35;;;;;;;24.38;6.18;;;;;;;12.00;100.00;103125.66;4976683;28;20374;-44
2023/05/26 06:41:00;;;;;;;20.92;5.53;;;;;;;12.16;100.00;103130.91;4994067;28;20049;-44
2023/05/26 06:43:25;;;;;;;19.98;5.53;;;;;;;12.29;100.00;103121.16;4986120;28;20034;-43
2023/05/26 06:45:51;;;;;;;21.50;5.65;;;;;;;12.46;100.00;103127.31;4973986;28;20602;-43
2023/05/26 06:48:16;;;;;;;19.55;5.43;;;;;;;12.49;100.00;103118.47;4985470;28;20030;-44
2023/05/26 06:50:41;;;;;;;17.38;5.43;;;;;;;12.67;100.00;103139.50;4993293;28;20070;-43
2023/05/26 06:53:07;;;;;;;22.58;5.57;;;;;;;12.65;100.00;103138.66;4994421;28;20026;-46
2023/05/26 06:55:32;;;;;;;28.80;6.68;;;;;;;12.45;100.00;103119.38;4994018;28;20034;-48
2023/05/26 06:57:57;;;;;;;22.58;5.35;;;;;;;12.52;100.00;103145.75;4993140;28;20078;-44
2023/05/26 07:00:23;;;;;;;19.42;6.82;;;;;;;12.56;100.00;103123.72;4992753;28;20100;-43
2023/05/26 07:02:48;;;;;;;18.88;5.50;;;;;;;12.70;100.00;103140.38;4993483;28;20550;-44
2023/05/26 07:05:13;;;;;;;20.08;4.93;;;;;;;12.76;100.00;103143.00;4991053;28;20031;-45
2023/05/26 07:07:39;;;;;;;22.00;4.93;;;;;;;12.76;100.00;103090.13;4975905;28;20045;-45
2023/05/26 07:10:05;;;;;;;17.13;4.90;;;;;;;12.95;100.00;103086.50;4980043;28;20090;-43
2023/05/26 07:12:30;;;;;;;23.33;5.40;;;;;;;13.56;100.00;103144.28;4993694;28;20034;-42
2023/05/26 07:14:56;;;;;;;13.40;5.45;;;;;;;13.69;100.00;103153.00;4993229;28;20061;-42
2023/05/26 07:17:21;;;;;;;18.85;6.07;;;;;;;13.66;100.00;103147.72;4986230;28;20031;-43
2023/05/26 07:19:46;;;;;;;21.58;5.60;;;;;;;13.85;100.00;103159.88;4977269;28;20027;-44
2023/05/26 07:22:12;;;;;;;17.73;5.57;;;;;;;13.87;100.00;103153.69;5004251;28;20061;-42
2023/05/26 07:24:37;;;;;;;21.85;5.75;;;;;;;13.57;100.00;103086.94;4995897;28;20042;-44
2023/05/26 07:27:03;;;;;;;22.25;5.20;;;;;;;13.82;100.00;103099.03;4975552;28;20067;-46
2023/05/26 07:29:28;;;;;;;26.10;6.78;;;;;;;13.97;100.00;103091.81;4993018;28;20034;-47
2023/05/26 07:31:54;;;;;;;16.42;4.82;;;;;;;14.32;100.00;103147.09;4992327;28;20492;-45
2023/05/26 07:34:20;;;;;;;29.00;6.60;;;;;;;14.63;100.00;103148.47;4993795;28;20030;-44
2023/05/26 07:36:45;;;;;;;20.90;5.20;;;;;;;14.96;100.00;103146.25;4991796;28;20100;-44
2023/05/26 07:39:10;;;;;;;21.02;5.10;;;;;;;15.27;100.00;103136.06;5002148;28;20045;-47
2023/05/26 07:41:36;;;;;;;16.10;4.88;;;;;;;15.78;100.00;103095.41;4996308;28;20034;-46
2023/05/26 07:44:02;;;;;;;17.90;4.60;;;;;;;16.26;100.00;103144.94;4991835;28;20092;-44
2023/05/26 07:46:27;;;;;;;13.63;5.57;;;;;;;16.70;100.00;103124.56;4992422;28;20026;-45
2023/05/26 07:48:53;;;;;;;14.85;4.38;;;;;;;17.04;100.00;103144.22;4991699;28;20081;-47
2023/05/26 07:51:19;;;;;;;13.80;3.95;;;;;;;16.88;100.00;103102.91;4993217;28;20092;-46
2023/05/26 07:53:44;;;;;;;19.08;4.85;;;;;;;17.39;100.00;103152.25;4991633;28;20436;-45
2023/05/26 07:56:10;;;;;;;18.17;5.20;;;;;;;17.74;100.00;103159.41;4992812;28;20034;-46
2023/05/26 07:58:38;;;;;;;16.65;5.05;;;;;;;17.53;100.00;103161.69;4991513;28;20049;-44
2023/05/26 08:01:06;;;;;;;16.83;5.05;;;;;;;17.27;100.00;103098.44;4993152;28;20461;-46
2023/05/26 08:03:32;;;;;;;18.00;5.28;;;;;;;17.21;100.00;103160.66;4991701;28;20030;-45
2023/05/26 08:05:57;;;;;;;14.88;4.47;;;;;;;17.11;100.00;103103.22;4992357;28;20069;-44
2023/05/26 08:08:22;;;;;;;17.58;5.38;;;;;;;17.31;100.00;103106.28;4991357;28;20504;-44
2023/05/26 08:10:48;;;;;;;13.82;4.25;;;;;;;17.65;100.00;103134.78;4997391;28;20038;-47
2023/05/26 08:13:13;;;;;;;16.15;6.00;;;;;;;17.85;100.00;103100.50;4992556;28;20038;-44
2023/05/26 08:15:38;;;;;;;15.57;4.88;;;;;;;17.73;100.00;103109.69;4993091;28;20030;-45
2023/05/26 08:18:04;;;;;;;14.75;5.13;;;;;;;18.14;100.00;103161.88;4980445;28;20035;-46
2023/05/26 08:20:29;;;;;;;16.67;4.93;;;;;;;17.40;100.00;103100.72;4990952;28;20108;-41
2023/05/26 08:22:57;;;;;;;15.65;5.07;;;;;;;17.68;100.00;103166.66;4991504;28;20122;-48
2023/05/26 08:25:22;;;;;;;18.98;4.70;;;;;;;17.53;100.00;103157.22;4986126;28;20041;-45
2023/05/26 08:27:48;;;;;;;13.68;4.72;;;;;;;17.27;100.00;103165.84;4984576;28;20038;-43
2023/05/26 08:30:13;;;;;;;13.60;4.40;;;;;;;17.32;100.00;103155.97;4974794;28;20039;-45
2023/05/26 08:32:39;;;;;;;14.85;4.60;;;;;;;17.83;100.00;103164.47;4974123;28;20042;-47
2023/05/26 08:35:04;;;;;;;18.02;4.78;;;;;;;17.67;100.00;103117.84;4991926;28;20038;-46
2023/05/26 08:37:30;;;;;;;15.73;4.55;;;;;;;17.57;100.00;103177.56;4992347;28;20034;-44
2023/05/26 08:39:57;;;;;;;14.60;4.95;;;;;;;17.94;100.00;103172.19;4991482;28;20038;-44
2023/05/26 08:42:28;;;;;;;17.50;5.38;;;;;;;17.93;100.00;103173.09;4992691;28;20046;-44
2023/05/26 08:44:53;;;;;;;12.13;3.95;;;;;;;18.33;100.00;103167.59;5002341;28;20120;-44
2023/05/26 08:47:19;;;;;;;14.63;4.10;;;;;;;18.68;100.00;103148.78;4998544;28;20155;-45
2023/05/26 08:49:46;;;;;;;18.35;4.97;;;;;;;18.68;100.00;103188.81;4979566;28;20375;-46
2023/05/26 08:52:13;;;;;;;22.17;6.15;;;;;;;18.45;100.00;103181.44;4978420;28;20045;-42
2023/05/26 08:54:42;;;;;;;13.25;3.90;;;;;;;19.03;100.00;103177.94;4995763;28;20070;-44
2023/05/26 08:57:09;;;;;;;13.27;4.68;;;;;;;18.94;100.00;103180.91;4992189;28;20129;-44
2023/05/26 08:59:36;;;;;;;17.52;4.93;;;;;;;18.87;100.00;103131.31;4976863;28;20038;-44
2023/05/26 09:02:02;;;;;;;11.63;4.68;;;;;;;19.27;100.00;103165.63;4977496;28;20046;-48
2023/05/26 09:04:29;;;;;;;17.42;4.88;;;;;;;19.22;100.00;103114.19;4978432;28;20035;-45
2023/05/26 09:06:54;;;;;;;11.55;4.05;;;;;;;19.50;100.00;103165.78;4978304;28;20057;-43
2023/05/26 09:09:20;;;;;;;13.98;4.25;;;;;;;19.63;100.00;103164.47;4995004;28;20406;-43
2023/05/26 09:11:48;;;;;;;11.20;3.97;;;;;;;19.80;100.00;103163.03;4995410;28;20408;-46
2023/05/26 09:14:17;;;;;;;14.48;4.18;;;;;;;19.62;100.00;103177.88;4995899;28;20065;-47
2023/05/26 09:16:43;;;;;;;17.88;4.30;;;;;;;18.90;100.00;103168.59;4980274;28;20234;-44
2023/05/26 09:19:14;;;;;;;13.63;4.82;;;;;;;18.79;100.00;103173.38;4993707;28;20037;-42
2023/05/26 09:21:40;;;;;;;;;;;;;;;18.48;100.00;103173.38;4994828;28;20041;-46
2023/05/26 09:24:05;;;;;;;15.43;4.47;;;;;;;18.79;100.00;103168.03;4995210;28;19914;-43
2023/05/26 09:26:33;;;;;;;19.08;4.65;;;;;;;18.13;100.00;103152.13;4995956;28;20428;-47
2023/05/26 09:29:00;;;;;;;13.35;4.32;;;;;;;18.42;100.00;103169.97;4978493;28;20034;-43
2023/05/26 09:31:25;;;;;;;18.10;5.15;;;;;;;18.97;100.00;103177.28;4996411;28;20042;-43
2023/05/26 09:33:52;;;;;;;14.32;5.05;;;;;;;19.57;100.00;103196.75;4995092;28;20038;-44
2023/05/26 09:36:23;;;;;;;11.40;4.20;;;;;;;19.26;100.00;103169.25;4993612;28;20042;-45
2023/05/26 09:38:51;;;;;;;9.48;3.63;;;;;;;19.73;100.00;103126.75;4977655;28;20070;-42
2023/05/26 09:41:20;;;;;;;15.00;5.10;;;;;;;19.84;100.00;103156.66;4978559;28;20026;-45
2023/05/26 09:43:49;;;;;;;14.70;4.15;;;;;;;20.33;100.00;103170.06;4993802;28;20038;-43
2023/05/26 09:46:22;;;;;;;14.48;4.60;;;;;;;20.21;100.00;103131.22;4998305;28;20286;-43
2023/05/26 09:48:51;;;;;;;14.30;4.50;;;;;;;20.34;100.00;103169.16;4978237;28;20026;-43
2023/05/26 09:51:20;;;;;;;14.52;4.78;;;;;;;20.82;100.00;103181.59;4978332;28;20474;-43
2023/05/26 09:53:46;;;;;;;13.60;4.57;;;;;;;20.91;100.00;103168.75;4995190;28;20041;-44
2023/05/26 09:56:12;;;;;;;17.63;4.65;;;;;;;21.00;100.00;103176.44;4995158;28;20117;-44
2023/05/26 09:58:39;;;;;;;11.48;4.50;;;;;;;21.22;100.00;103174.66;4977873;28;20456;-48
2023/05/26 10:01:05;;;;;;;16.50;4.82;;;;;;;21.11;100.00;103170.66;4976839;28;20046;-46
2023/05/26 10:03:31;;;;;;;11.52;4.20;;;;;;;20.63;98.57;103168.94;4977447;28;20034;-47
2023/05/26 10:05:57;;;;;;;13.73;4.32;;;;;;;20.57;100.00;103177.19;4991731;28;20031;-45
2023/05/26 10:08:23;;;;;;;11.85;4.07;;;;;;;20.21;100.00;103067.06;4997843;28;20177;-46
2023/05/26 10:10:49;;;;;;;13.13;4.30;;;;;;;19.82;100.00;103100.56;4985563;28;20465;-43
2023/05/26 10:13:16;;;;;;;9.43;3.97;;;;;;;20.89;100.00;103172.41;4984787;28;20113;-44
2023/05/26 10:15:45;;;;;;;13.27;4.55;;;;;;;20.68;99.11;103123.25;4990667;28;20138;-44
2023/05/26 10:18:10;;;;;;;14.18;5.15;;;;;;;21.21;100.00;103186.34;4975781;28;20070;-42
2023/05/26 10:20:36;;;;;;;16.08;4.30;;;;;;;20.97;100.00;103162.28;4986488;28;20112;-44
2023/05/26 10:23:07;;;;;;;17.08;5.40;;;;;;;21.41;100.00;103090.88;4994644;28;20081;-44
2023/05/26 10:25:41;;;;;;;13.18;5.15;;;;;;;21.16;100.00;103161.50;4977371;28;20106;-45
2023/05/26 10:28:43;;;;;;;15.02;4.90;;;;;;;21.17;100.00;103168.63;4995090;28;20482;-43
2023/05/26 10:31:09;;;;;;;14.40;4.28;;;;;;;21.94;100.00;103153.81;4975504;28;20027;-45
2023/05/26 10:33:39;;;;;;;13.23;4.32;;;;;;;22.40;100.00;103101.66;4975526;28;20157;-44
2023/05/26 10:36:23;;;;;;;11.93;4.53;;;;;;;22.18;93.75;103136.63;4974947;28;20066;-44
2023/05/26 10:38:51;;;;;;;11.10;4.07;;;;;;;22.39;95.57;103134.78;4989034;28;20048;-46
2023/05/26 10:41:37;;;;;;;14.88;5.28;;;;;;;21.72;98.71;103142.22;4992335;28;20049;-42
2023/05/26 10:44:04;;;;;;;17.52;4.63;;;;;;;21.68;99.73;103117.38;4994244;28;20045;-45
2023/05/26 10:46:37;;;;;;;12.93;4.80;;;;;;;21.54;99.89;103161.78;4994718;28;20552;-43
2023/05/26 10:49:03;;;;;;;13.45;4.72;;;;;;;21.82;100.00;103122.13;4991440;28;20493;-49
2023/05/26 10:51:32;;;;;;;11.15;4.18;;;;;;;21.71;100.00;103151.22;4992953;28;20069;-44
2023/05/26 10:53:58;;;;;;;15.18;5.10;;;;;;;22.41;100.00;103149.91;4993437;28;20168;-43
2023/05/26 10:56:41;;;;;;;14.35;4.93;;;;;;;22.31;100.00;103143.19;4976189;28;20026;-43
2023/05/26 10:59:06;;;;;;;15.38;4.75;;;;;;;22.01;96.48;103101.63;5008200;28;20040;-43
2023/05/26 11:01:32;;;;;;;15.02;4.70;;;;;;;21.89;100.00;103147.75;4976800;28;20034;-47
2023/05/26 11:03:58;;;;;;;13.23;4.40;;;;;;;22.46;96.68;103155.03;4993391;28;20503;-44
2023/05/26 11:06:59;;;;;;;20.08;6.05;;;;;;;22.26;95.22;103150.59;4992005;28;20037;-43
2023/05/26 11:09:26;;;;;;;;;;;;;;;22.14;99.20;103152.94;4983397;28;20528;-44
2023/05/26 11:11:53;;;;;;;12.45;4.15;;;;;;;22.13;94.92;103138.66;4994261;28;19916;-44